Lebanon, Illinois
Current Conditions -  °F | °C
As of 6:58 PM on Sunday 21 Dec 2014 (Local Time) from KBLV Reporting Station
Overcast Overcast  
Wind Chill: 35°   Ceiling: 3700
Heat Index: 41°   Visibility: 10mi
Dew Point: 34°   Wind: 9mph
Humidity: 76%   Direction: 130°SE
Pressure: 30.03"   Gusts: NA
Location:  38.6°N, 89.81°W
Report Text: KBLV 220058Z AUTO 13008KT 10SM OVC037 05/01 A3003 RMK AO2 SLP175 T00500011 $
Loading
Personal Weather Stations






























Interactive Weather Map New forecast layout! Learn more

10-Day Weather Forecast

Advertisements
Track Severe Weather on mobile